Latest Weather Observations for Norseman Airport

IDW60801

Issued at 10:43 pm WST Friday 28 February 2020 (issued every 10 minutes, with the page automatically refreshed every 10 minutes)

About weather observations | Map of weather stations | Latest weather observations for WA | Other Formats
Station Details ID: 012009 Name: NORSEMAN AERO Lat: -32.21 Lon: 121.75 Height: 262.5 m
Data from the previous 72 hours. | See also: Recent months at Norseman Airport
Date/Time
WST
Temp
°C
App
Temp
°C
Dew
Point
°C
Rel
Hum
%
Delta-T
°C
Wind Press
QNH
hPa
Press
MSL
hPa
Rain since
9am
mm
Dir  Spd
km/h
Gust
km/h
Spd
kts
Gust
kts
28/10:30pm 23.4 21.8 12.7 51 6.2 ESE 13 20 7 11 1013.1 1011.8 0.0
28/10:00pm 23.8 22.4 13.4 52 6.1 ESE 13 19 7 10 1012.8 1011.5 0.0
28/09:30pm 24.0 22.8 14.1 54 5.9 SSE 13 17 7 9 1013.9 1012.6 0.0
28/09:00pm 24.3 23.5 14.1 53 6.1 ENE 11 19 6 10 1013.7 1012.4 0.0
28/08:30pm 24.2 23.5 14.3 54 5.9 ENE 11 17 6 9 1012.9 1011.6 0.0
28/08:00pm 24.4 23.4 14.5 54 5.9 ESE 13 19 7 10 1012.5 1011.2 0.0
28/07:30pm 24.8 24.1 14.3 52 6.3 SE 11 17 6 9 1012.6 1011.3 0.0
28/07:00pm 25.3 24.2 14.4 50 6.6 SE 13 15 7 8 1012.6 1011.3 0.0
28/06:30pm 25.4 24.1 14.8 52 6.4 ESE 15 20 8 11 1012.6 1011.3 0.0
28/06:00pm 25.6 24.0 15.0 52 6.4 SSE 17 26 9 14 1012.5 1011.2 0.0
28/05:30pm 26.2 25.0 15.0 50 6.8 S 15 24 8 13 1013.3 1012.0 0.0
28/05:00pm 26.4 24.5 15.1 49 6.9 SSE 19 30 10 16 1012.5 1011.2 0.0
28/04:30pm 26.3 24.0 15.7 52 6.5 SSE 22 35 12 19 1011.8 1010.5 0.0
28/04:00pm 25.8 23.3 16.1 55 6.0 SSE 24 35 13 19 1011.9 1010.6 0.0
28/03:30pm 28.0 26.9 14.3 43 8.3 SSE 13 19 7 10 1012.4 1011.1 0.0
28/03:00pm 28.2 28.4 14.1 42 8.5 E 6 9 3 5 1013.0 1011.7 0.0
28/02:30pm 27.8 27.4 14.1 43 8.3 NNE 9 13 5 7 1012.4 1011.1 0.0
28/02:00pm 27.0 26.0 14.7 47 7.5 NE 13 17 7 9 1012.5 1011.2 0.0
28/01:30pm 26.3 26.4 14.4 48 7.2 NNE 7 13 4 7 1013.3 1012.0 0.0
28/01:00pm 26.0 25.7 14.5 49 6.9 WSW 9 13 5 7 1014.2 1012.9 0.0
28/12:30pm 25.7 26.0 14.5 50 6.8 WSW 6 13 3 7 1014.2 1012.9 0.0
28/12:00pm 25.0 25.3 14.5 52 6.3 NNE 6 11 3 6 1014.5 1013.2 0.0
28/11:30am 23.7 23.3 14.1 55 5.7 ENE 9 17 5 9 1015.3 1014.0 0.0
28/11:00am 22.3 21.2 14.4 61 4.7 NE 13 19 7 10 1015.3 1014.0 0.0
28/10:30am 21.4 20.2 14.1 63 4.3 N 13 19 7 10 1016.7 1015.4 0.0
28/10:00am 20.2 19.7 13.9 67 3.7 E 9 20 5 11 1015.8 1014.5 0.0
28/09:30am 19.0 16.8 13.4 70 3.2 ENE 17 20 9 11 1016.0 1014.7 0.0
28/09:00am 18.9 16.8 13.7 72 3.0 ENE 17 22 9 12 1016.4 1015.1 0.6
28/08:30am 18.6 17.4 13.9 74 2.7 NNE 13 20 7 11 1017.3 1016.0 0.6
28/08:00am 17.3 16.9 13.0 76 2.4 N 7 15 4 8 1017.7 1016.4 0.6
28/07:30am 16.7 15.2 13.2 80 2.0 ENE 13 17 7 9 1016.8 1015.5 0.6
28/07:00am 16.6 14.4 13.3 81 1.9 NNE 17 20 9 11 1017.4 1016.1 0.6
28/06:30am 15.8 14.4 13.5 86 1.3 ENE 13 22 7 12 1016.6 1015.3 0.6
28/06:00am 15.7 14.3 13.5 87 1.2 ENE 13 19 7 10 1017.0 1015.7 0.6
28/05:30am 16.7 14.3 12.8 78 2.2 E 17 24 9 13 1017.4 1016.1 0.0
28/05:00am 17.2 17.1 12.1 72 2.8 NE 4 9 2 5 1018.8 1017.6 0.0
28/04:30am 17.7 17.5 11.9 69 3.2 ESE 4 9 2 5 1018.4 1017.2 0.0
28/04:00am 17.6 16.5 11.9 69 3.2 E 9 15 5 8 1017.3 1016.0 0.0
28/03:30am 17.7 17.2 11.9 69 3.2 S 6 9 3 5 1018.2 1016.9 0.0
28/03:00am 17.9 18.2 12.1 69 3.2 SSE 2 7 1 4 1017.4 1016.1 0.0
28/02:30am 17.9 18.6 12.1 69 3.2 CALM 0 7 0 4 1017.1 1015.8 0.0
28/02:00am 18.1 17.4 12.1 68 3.4 ESE 7 13 4 7 1016.6 1015.3 0.0
28/01:30am 18.2 16.0 12.0 67 3.5 E 15 22 8 12 1016.4 1015.1 0.0
28/01:00am 18.6 16.5 12.4 67 3.5 ENE 15 26 8 14 1016.5 1015.2 0.0
28/12:30am 18.8 17.8 12.3 66 3.7 ENE 9 22 5 12 1016.6 1015.3 0.0
28/12:00am 19.6 16.6 12.4 63 4.1 E 20 35 11 19 1016.6 1015.3 0.0
 
Date/Time
WST
Temp
°C
App
Temp
°C
Dew
Point
°C
Rel
Hum
%
Delta-T
°C
Wind Press
QNH
hPa
Press
MSL
hPa
Rain since
9am
mm
Dir  Spd
km/h
Gust
km/h
Spd
kts
Gust
kts
27/11:30pm 20.3 16.1 12.5 61 4.4 E 26 39 14 21 1016.8 1015.5 0.0
27/11:00pm 21.3 17.2 12.7 58 4.9 E 26 43 14 23 1016.9 1015.6 0.0
27/10:30pm 22.3 18.2 12.8 55 5.5 E 26 41 14 22 1016.9 1015.6 0.0
27/10:00pm 23.2 19.1 12.8 52 6.0 E 26 39 14 21 1017.2 1015.9 0.0
27/09:30pm 24.4 21.1 12.7 48 6.8 E 22 35 12 19 1017.2 1015.9 0.0
27/09:00pm 25.5 22.2 12.7 45 7.5 ESE 22 35 12 19 1017.2 1015.9 0.0
27/08:30pm 27.1 24.3 12.7 41 8.5 ESE 19 30 10 16 1016.6 1015.3 0.0
27/08:00pm 27.8 25.0 12.6 39 9.0 ESE 19 30 10 16 1016.2 1014.9 0.0
27/07:30pm 28.5 26.8 12.4 37 9.5 ESE 13 24 7 13 1016.1 1014.8 0.0
27/07:00pm 29.2 27.5 12.6 36 9.8 ESE 13 22 7 12 1015.6 1014.3 0.0
27/06:30pm 29.9 27.8 12.3 33 10.4 ESE 15 28 8 15 1015.2 1013.9 0.0
27/06:00pm 30.8 28.4 12.7 33 10.8 ESE 17 28 9 15 1014.9 1013.6 0.0
27/05:30pm 30.8 28.0 12.7 33 10.8 SE 19 26 10 14 1014.8 1013.5 0.0
27/05:00pm 31.3 28.7 13.1 33 11.0 SE 19 28 10 15 1014.8 1013.5 0.0
27/04:30pm 31.7 30.7 13.5 33 11.1 ESE 11 22 6 12 1014.9 1013.6 0.0
27/04:00pm 31.8 29.9 13.1 32 11.3 E 15 24 8 13 1015.0 1013.8 0.0
27/03:30pm 31.9 30.8 13.2 32 11.3 ESE 11 17 6 9 1015.3 1014.0 0.0
27/03:00pm 31.1 29.8 13.8 34 10.5 SSE 13 20 7 11 1015.5 1014.2 0.0
27/02:30pm 30.5 29.2 13.7 35 10.2 ESE 13 20 7 11 1015.9 1014.6 0.0
27/02:00pm 30.2 29.0 13.9 37 9.9 E 13 20 7 11 1016.1 1014.8 0.0
27/01:30pm 29.6 28.3 13.8 38 9.6 ESE 13 24 7 13 1016.2 1014.9 0.0
27/01:00pm 29.5 27.8 13.7 38 9.5 ESE 15 26 8 14 1016.3 1015.0 0.0
27/12:30pm 28.9 26.3 13.9 39 9.1 ESE 20 28 11 15 1016.6 1015.3 0.0
27/12:00pm 28.3 27.4 13.8 41 8.7 E 11 22 6 12 1017.1 1015.8 0.0
27/11:30am 27.4 26.2 14.1 44 8.0 ENE 13 19 7 10 1017.7 1016.4 0.0
27/11:00am 26.3 25.3 13.4 45 7.7 E 11 20 6 11 1018.3 1017.1 0.0
27/10:30am 25.7 24.0 13.5 46 7.2 E 15 22 8 12 1018.7 1017.5 0.0
27/10:00am 24.0 21.3 12.9 50 6.5 ENE 19 30 10 16 1018.8 1017.6 0.0
27/09:30am 24.3 22.7 13.8 52 6.2 E 15 26 8 14 1019.0 1017.8 0.0
27/09:00am 21.7 19.1 13.1 58 5.0 E 19 24 10 13 1019.8 1018.5 -
27/08:30am 21.0 19.1 12.9 60 4.7 E 15 24 8 13 1020.0 1018.7 -
27/07:30am 19.0 16.4 13.2 69 3.3 ENE 19 24 10 13 1020.0 1018.7 0.0
27/07:00am 18.4 16.6 13.3 72 2.9 E 15 24 8 13 1020.0 1018.7 0.0
27/06:30am 17.6 16.9 13.3 76 2.5 ESE 9 15 5 8 1020.2 1018.9 0.0
27/06:00am 16.9 16.6 13.4 80 2.0 ESE 7 11 4 6 1020.1 1018.8 0.0
27/05:30am 17.0 16.8 13.5 80 2.0 SE 7 11 4 6 1019.6 1018.3 0.0
27/05:00am 17.2 17.3 13.9 81 1.9 ESE 6 9 3 5 1018.8 1017.6 0.0
27/04:30am 17.3 17.2 13.8 80 2.0 ESE 7 13 4 7 1018.1 1016.8 0.0
27/04:00am 17.5 17.4 13.8 79 2.1 ESE 7 11 4 6 1017.7 1016.4 0.0
27/03:30am 17.8 17.3 13.9 78 2.3 E 9 15 5 8 1017.7 1016.4 0.0
27/03:00am 18.2 17.8 14.1 77 2.4 ESE 9 17 5 9 1017.7 1016.4 0.0
27/02:30am 18.5 17.8 14.2 76 2.5 E 11 19 6 10 1017.5 1016.2 0.0
27/02:00am 19.0 18.7 14.3 74 2.7 E 9 15 5 8 1017.6 1016.3 0.0
27/01:30am 19.4 18.3 14.4 73 2.9 ENE 13 20 7 11 1017.4 1016.1 0.0
27/01:00am 19.8 18.8 14.6 72 3.1 E 13 20 7 11 1017.6 1016.3 0.0
27/12:30am 20.3 19.3 14.7 70 3.3 E 13 20 7 11 1017.3 1016.0 0.0
27/12:00am 20.7 20.2 14.8 69 3.5 ESE 11 20 6 11 1017.5 1016.2 0.0
 
Date/Time
WST
Temp
°C
App
Temp
°C
Dew
Point
°C
Rel
Hum
%
Delta-T
°C
Wind Press
QNH
hPa
Press
MSL
hPa
Rain since
9am
mm
Dir  Spd
km/h
Gust
km/h
Spd
kts
Gust
kts
26/11:30pm 21.1 20.3 15.0 68 3.6 E 13 20 7 11 1018.6 1017.4 0.0
26/11:00pm 22.0 21.6 15.1 65 4.1 ESE 11 22 6 12 1018.0 1016.7 0.0
26/10:30pm 22.8 21.3 15.4 63 4.5 ESE 17 26 9 14 1018.3 1017.1 0.0
26/10:00pm 23.6 22.0 15.1 59 5.1 ESE 17 28 9 15 1018.4 1017.2 0.0
26/09:30pm 24.0 22.6 15.5 59 5.2 ESE 17 28 9 15 1018.7 1017.5 0.0
26/09:00pm 24.3 22.9 15.5 58 5.4 ESE 17 26 9 14 1018.8 1017.6 0.0
26/08:30pm 24.7 23.8 15.9 58 5.4 ESE 15 26 8 14 1018.7 1017.5 0.0
26/08:00pm 25.2 24.4 16.1 57 5.6 SE 15 24 8 13 1018.3 1017.1 0.0
26/07:30pm 25.8 24.6 16.1 55 6.0 SE 17 26 9 14 1018.2 1016.9 0.0
26/07:00pm 26.6 26.1 15.9 51 6.6 SE 13 20 7 11 1017.8 1016.5 0.0
26/06:30pm 27.4 27.3 16.1 50 7.0 SSE 11 22 6 12 1017.3 1016.0 0.0
26/06:00pm 28.2 28.4 15.8 47 7.7 SE 9 13 5 7 1017.2 1015.9 0.0
26/05:30pm 28.4 28.6 15.7 46 7.9 ESE 9 15 5 8 1017.0 1015.7 0.0
26/05:00pm 28.5 28.7 15.8 46 7.9 SE 9 17 5 9 1017.0 1015.7 0.0
26/04:30pm 28.7 28.6 15.9 45 8.0 ESE 11 15 6 8 1016.7 1015.4 0.0
26/04:00pm 28.6 28.8 15.8 45 8.0 E 9 17 5 9 1016.7 1015.4 0.0
26/03:30pm 28.7 28.1 15.6 45 8.1 E 13 20 7 11 1016.6 1015.3 0.0
26/03:00pm 28.4 27.9 16.0 47 7.7 E 13 19 7 10 1016.4 1015.1 0.0
26/02:30pm 28.1 27.5 15.7 46 7.7 ESE 13 24 7 13 1016.5 1015.2 0.0
26/02:00pm 27.7 26.6 15.4 47 7.6 ESE 15 24 8 13 1016.5 1015.2 0.0
26/01:30pm 28.2 27.4 15.1 44 8.1 ENE 13 20 7 11 1017.0 1015.7 0.0
26/01:00pm 28.1 27.3 15.1 45 8.0 ESE 13 17 7 9 1017.4 1016.1 0.0
26/12:30pm 28.4 28.3 15.0 44 8.2 NNE 9 15 5 8 1017.8 1016.5 0.0
26/12:00pm 27.8 27.4 15.1 46 7.8 NNE 11 20 6 11 1018.3 1017.1 0.0
26/11:30am 26.4 25.9 14.8 49 7.1 E 11 22 6 12 1018.3 1017.1 0.0
26/11:00am 26.2 25.4 15.0 50 6.8 E 13 19 7 10 1019.3 1018.0 0.0
26/10:30am 25.0 25.5 15.0 53 6.1 ENE 6 11 3 6 1019.7 1018.4 0.0
26/10:00am 24.1 24.7 15.3 58 5.3 E 6 20 3 11 1020.0 1018.7 0.0
26/09:30am 22.5 21.6 14.9 62 4.6 E 13 20 7 11 1020.0 1018.7 0.0
26/09:00am 21.5 20.2 14.9 66 3.9 E 15 22 8 12 1020.2 1018.9 0.0
26/08:30am 21.8 20.5 14.9 65 4.1 ESE 15 22 8 12 1020.1 1018.8 0.0
26/08:00am 20.7 19.0 14.8 69 3.5 ENE 17 24 9 13 1019.7 1018.4 0.0
26/07:30am 20.4 19.3 15.2 72 3.1 E 15 24 8 13 1019.7 1018.4 0.0
26/07:00am 20.0 18.8 15.0 73 3.0 E 15 24 8 13 1019.5 1018.2 0.0
26/06:30am 19.8 19.4 15.2 75 2.7 SE 11 17 6 9 1019.5 1018.2 0.0
26/06:00am 19.3 18.5 15.0 76 2.5 ESE 13 22 7 12 1019.4 1018.1 0.0
26/05:30am 19.2 18.8 15.1 77 2.4 ESE 11 20 6 11 1018.8 1017.6 0.0
26/05:00am 19.1 19.0 15.0 77 2.4 E 9 17 5 9 1018.4 1017.2 0.0
26/04:30am 19.3 18.6 15.4 78 2.3 ESE 13 20 7 11 1017.8 1016.5 0.0
26/04:00am 19.4 18.7 15.5 78 2.3 ESE 13 20 7 11 1018.0 1016.7 0.0
26/03:30am 19.5 19.3 15.6 78 2.3 SE 11 15 6 8 1018.4 1017.2 0.0
26/03:00am 19.4 18.3 15.3 77 2.4 SE 15 19 8 10 1018.0 1016.7 0.0
26/02:30am 19.9 19.7 15.7 77 2.5 E 11 19 6 10 1017.7 1016.4 0.0
26/02:00am 20.3 19.0 15.9 76 2.7 S 17 20 9 11 1018.1 1016.8 0.0
26/01:30am 20.8 21.2 16.2 75 2.8 SSE 9 15 5 8 1018.6 1017.4 0.0
26/01:00am 20.7 21.4 16.1 75 2.8 SSE 7 11 4 6 1018.3 1017.1 0.0
26/12:30am 20.6 20.9 16.0 75 2.8 SSE 9 17 5 9 1018.3 1017.1 0.0
26/12:00am 20.6 19.0 16.0 75 2.8 S 19 28 10 15 1018.4 1017.2 0.0
 
Date/Time
WST
Temp
°C
App
Temp
°C
Dew
Point
°C
Rel
Hum
%
Delta-T
°C
Wind Press
QNH
hPa
Press
MSL
hPa
Rain since
9am
mm
Dir  Spd
km/h
Gust
km/h
Spd
kts
Gust
kts
25/11:30pm 20.8 19.6 16.0 74 2.9 S 17 24 9 13 1019.0 1017.8 0.0
25/11:00pm 21.2 20.0 16.2 73 3.0 S 17 22 9 12 1018.6 1017.4 0.0

Other formats

Comma delimited format used in spreadsheet applications
http://www.bom.gov.au/fwo/IDW60801/IDW60801.95642.axf

JavaScript Object Notation format (JSON) in row-major order
http://www.bom.gov.au/fwo/IDW60801/IDW60801.95642.json

Data quality

Most of these data are generated automatically and are frequently updated. Quality checks on data are not normally performed. It is possible for incorrect values to appear. Refer to information at About Latest Weather Observations and please check the disclaimer before using these data.